sensor_id;sensor_type;location;lat;lon;timestamp;P1;durP1;ratioP1;P2;durP2;ratioP2
29916;SDS011;16786;49.466;11.068;2024-02-16T00:02:03;9.48;;;5.88;;
29916;SDS011;16786;49.466;11.068;2024-02-16T00:04:30;12.43;;;6.35;;
29916;SDS011;16786;49.466;11.068;2024-02-16T00:06:57;8.48;;;6.03;;
29916;SDS011;16786;49.466;11.068;2024-02-16T00:09:24;12.77;;;6.45;;
29916;SDS011;16786;49.466;11.068;2024-02-16T00:11:51;8.27;;;5.05;;
29916;SDS011;16786;49.466;11.068;2024-02-16T00:14:19;10.48;;;6.10;;
29916;SDS011;16786;49.466;11.068;2024-02-16T00:16:47;11.77;;;6.28;;
29916;SDS011;16786;49.466;11.068;2024-02-16T00:19:14;9.80;;;5.47;;
29916;SDS011;16786;49.466;11.068;2024-02-16T00:21:41;10.88;;;5.57;;
29916;SDS011;16786;49.466;11.068;2024-02-16T00:24:09;10.73;;;5.15;;
29916;SDS011;16786;49.466;11.068;2024-02-16T00:26:36;8.77;;;5.45;;
29916;SDS011;16786;49.466;11.068;2024-02-16T00:29:06;8.52;;;4.90;;
29916;SDS011;16786;49.466;11.068;2024-02-16T00:31:33;9.77;;;4.97;;
29916;SDS011;16786;49.466;11.068;2024-02-16T00:34:00;7.75;;;4.55;;
29916;SDS011;16786;49.466;11.068;2024-02-16T00:36:27;8.23;;;4.45;;
29916;SDS011;16786;49.466;11.068;2024-02-16T00:38:57;8.82;;;5.03;;
29916;SDS011;16786;49.466;11.068;2024-02-16T00:41:24;8.07;;;4.90;;
29916;SDS011;16786;49.466;11.068;2024-02-16T00:43:52;8.23;;;4.47;;
29916;SDS011;16786;49.466;11.068;2024-02-16T00:46:19;7.65;;;4.80;;
29916;SDS011;16786;49.466;11.068;2024-02-16T00:48:49;8.73;;;4.57;;
29916;SDS011;16786;49.466;11.068;2024-02-16T00:51:18;8.32;;;4.70;;
29916;SDS011;16786;49.466;11.068;2024-02-16T00:53:45;8.27;;;4.47;;
29916;SDS011;16786;49.466;11.068;2024-02-16T00:56:13;8.27;;;4.72;;
29916;SDS011;16786;49.466;11.068;2024-02-16T00:58:40;7.68;;;4.88;;
29916;SDS011;16786;49.466;11.068;2024-02-16T01:01:09;10.93;;;6.47;;
29916;SDS011;16786;49.466;11.068;2024-02-16T01:03:38;12.15;;;6.43;;
29916;SDS011;16786;49.466;11.068;2024-02-16T01:06:05;8.52;;;5.28;;
29916;SDS011;16786;49.466;11.068;2024-02-16T01:08:33;10.25;;;5.35;;
29916;SDS011;16786;49.466;11.068;2024-02-16T01:11:00;8.93;;;5.07;;
29916;SDS011;16786;49.466;11.068;2024-02-16T01:13:27;10.63;;;5.25;;
29916;SDS011;16786;49.466;11.068;2024-02-16T01:15:54;8.68;;;5.10;;
29916;SDS011;16786;49.466;11.068;2024-02-16T01:18:21;10.75;;;5.20;;
29916;SDS011;16786;49.466;11.068;2024-02-16T01:20:48;10.73;;;6.05;;
29916;SDS011;16786;49.466;11.068;2024-02-16T01:23:15;10.50;;;5.93;;
29916;SDS011;16786;49.466;11.068;2024-02-16T01:25:42;8.93;;;5.18;;
29916;SDS011;16786;49.466;11.068;2024-02-16T01:28:09;11.25;;;6.43;;
29916;SDS011;16786;49.466;11.068;2024-02-16T01:30:39;12.88;;;7.28;;
29916;SDS011;16786;49.466;11.068;2024-02-16T01:33:06;15.60;;;7.50;;
29916;SDS011;16786;49.466;11.068;2024-02-16T01:35:33;10.85;;;6.82;;
29916;SDS011;16786;49.466;11.068;2024-02-16T01:38:01;12.68;;;6.80;;
29916;SDS011;16786;49.466;11.068;2024-02-16T01:40:28;10.88;;;6.43;;
29916;SDS011;16786;49.466;11.068;2024-02-16T01:42:55;12.70;;;6.38;;
29916;SDS011;16786;49.466;11.068;2024-02-16T01:45:22;11.77;;;7.20;;
29916;SDS011;16786;49.466;11.068;2024-02-16T01:47:51;11.95;;;6.32;;
29916;SDS011;16786;49.466;11.068;2024-02-16T01:50:18;10.15;;;6.45;;
29916;SDS011;16786;49.466;11.068;2024-02-16T01:52:47;10.48;;;6.72;;
29916;SDS011;16786;49.466;11.068;2024-02-16T01:55:15;10.15;;;6.20;;
29916;SDS011;16786;49.466;11.068;2024-02-16T01:57:43;8.60;;;5.82;;
29916;SDS011;16786;49.466;11.068;2024-02-16T02:00:12;8.75;;;5.68;;
29916;SDS011;16786;49.466;11.068;2024-02-16T02:02:44;10.10;;;5.55;;
29916;SDS011;16786;49.466;11.068;2024-02-16T02:05:13;10.13;;;6.18;;
29916;SDS011;16786;49.466;11.068;2024-02-16T02:07:42;10.13;;;5.85;;
29916;SDS011;16786;49.466;11.068;2024-02-16T02:10:09;9.35;;;5.78;;
29916;SDS011;16786;49.466;11.068;2024-02-16T02:12:39;11.13;;;7.07;;
29916;SDS011;16786;49.466;11.068;2024-02-16T02:15:08;11.25;;;6.00;;
29916;SDS011;16786;49.466;11.068;2024-02-16T02:17:35;10.50;;;5.90;;
29916;SDS011;16786;49.466;11.068;2024-02-16T02:20:03;9.32;;;6.00;;
29916;SDS011;16786;49.466;11.068;2024-02-16T02:22:31;14.95;;;6.30;;
29916;SDS011;16786;49.466;11.068;2024-02-16T02:24:57;11.68;;;6.00;;
29916;SDS011;16786;49.466;11.068;2024-02-16T02:27:24;12.43;;;6.90;;
29916;SDS011;16786;49.466;11.068;2024-02-16T02:29:51;11.77;;;6.10;;
29916;SDS011;16786;49.466;11.068;2024-02-16T02:32:18;11.02;;;5.28;;
29916;SDS011;16786;49.466;11.068;2024-02-16T02:34:45;7.97;;;5.03;;
29916;SDS011;16786;49.466;11.068;2024-02-16T02:37:13;9.65;;;4.93;;
29916;SDS011;16786;49.466;11.068;2024-02-16T02:39:39;6.85;;;4.50;;
29916;SDS011;16786;49.466;11.068;2024-02-16T02:42:07;9.10;;;4.90;;
29916;SDS011;16786;49.466;11.068;2024-02-16T02:44:34;9.68;;;5.05;;
29916;SDS011;16786;49.466;11.068;2024-02-16T02:47:02;8.15;;;4.28;;
29916;SDS011;16786;49.466;11.068;2024-02-16T02:49:29;9.65;;;4.40;;
29916;SDS011;16786;49.466;11.068;2024-02-16T02:51:56;9.40;;;5.00;;
29916;SDS011;16786;49.466;11.068;2024-02-16T02:54:23;9.02;;;5.07;;
29916;SDS011;16786;49.466;11.068;2024-02-16T02:56:50;7.07;;;4.60;;
29916;SDS011;16786;49.466;11.068;2024-02-16T02:59:16;7.85;;;4.72;;
29916;SDS011;16786;49.466;11.068;2024-02-16T03:01:43;9.63;;;4.38;;
29916;SDS011;16786;49.466;11.068;2024-02-16T03:04:11;6.65;;;4.63;;
29916;SDS011;16786;49.466;11.068;2024-02-16T03:06:38;7.60;;;4.43;;
29916;SDS011;16786;49.466;11.068;2024-02-16T03:09:05;7.55;;;4.38;;
29916;SDS011;16786;49.466;11.068;2024-02-16T03:11:33;6.72;;;3.83;;
29916;SDS011;16786;49.466;11.068;2024-02-16T03:14:00;9.60;;;4.30;;
29916;SDS011;16786;49.466;11.068;2024-02-16T03:16:27;9.18;;;3.97;;
29916;SDS011;16786;49.466;11.068;2024-02-16T03:18:54;6.10;;;3.90;;
29916;SDS011;16786;49.466;11.068;2024-02-16T03:21:22;7.43;;;4.53;;
29916;SDS011;16786;49.466;11.068;2024-02-16T03:23:49;7.97;;;4.60;;
29916;SDS011;16786;49.466;11.068;2024-02-16T03:26:16;9.88;;;4.53;;
29916;SDS011;16786;49.466;11.068;2024-02-16T03:28:45;8.70;;;4.45;;
29916;SDS011;16786;49.466;11.068;2024-02-16T03:33:43;8.93;;;4.30;;
29916;SDS011;16786;49.466;11.068;2024-02-16T03:36:10;7.90;;;4.43;;
29916;SDS011;16786;49.466;11.068;2024-02-16T03:38:46;7.28;;;4.18;;
29916;SDS011;16786;49.466;11.068;2024-02-16T03:41:19;6.55;;;4.07;;
29916;SDS011;16786;49.466;11.068;2024-02-16T03:43:47;8.63;;;4.45;;
29916;SDS011;16786;49.466;11.068;2024-02-16T03:46:14;7.88;;;4.90;;
29916;SDS011;16786;49.466;11.068;2024-02-16T03:48:41;9.00;;;4.35;;
29916;SDS011;16786;49.466;11.068;2024-02-16T03:51:09;8.55;;;5.10;;
29916;SDS011;16786;49.466;11.068;2024-02-16T03:53:36;9.52;;;4.85;;
29916;SDS011;16786;49.466;11.068;2024-02-16T03:56:03;6.95;;;4.35;;
29916;SDS011;16786;49.466;11.068;2024-02-16T03:58:32;9.52;;;4.43;;
29916;SDS011;16786;49.466;11.068;2024-02-16T04:00:59;8.98;;;4.50;;
29916;SDS011;16786;49.466;11.068;2024-02-16T04:03:26;8.23;;;4.32;;
29916;SDS011;16786;49.466;11.068;2024-02-16T04:05:53;9.70;;;4.35;;
29916;SDS011;16786;49.466;11.068;2024-02-16T04:08:20;6.32;;;4.20;;
29916;SDS011;16786;49.466;11.068;2024-02-16T04:10:47;8.93;;;4.47;;
29916;SDS011;16786;49.466;11.068;2024-02-16T04:13:14;6.97;;;4.28;;
29916;SDS011;16786;49.466;11.068;2024-02-16T04:15:41;9.20;;;4.70;;
29916;SDS011;16786;49.466;11.068;2024-02-16T04:18:09;6.63;;;4.57;;
29916;SDS011;16786;49.466;11.068;2024-02-16T04:20:36;7.85;;;4.63;;
29916;SDS011;16786;49.466;11.068;2024-02-16T04:23:04;10.35;;;5.70;;
29916;SDS011;16786;49.466;11.068;2024-02-16T04:25:31;10.10;;;6.13;;
29916;SDS011;16786;49.466;11.068;2024-02-16T04:27:58;11.27;;;6.13;;
29916;SDS011;16786;49.466;11.068;2024-02-16T04:30:25;9.82;;;5.40;;
29916;SDS011;16786;49.466;11.068;2024-02-16T04:32:52;7.95;;;5.10;;
29916;SDS011;16786;49.466;11.068;2024-02-16T04:35:19;11.15;;;5.13;;
29916;SDS011;16786;49.466;11.068;2024-02-16T04:37:46;8.57;;;5.00;;
29916;SDS011;16786;49.466;11.068;2024-02-16T04:40:13;9.85;;;5.53;;
29916;SDS011;16786;49.466;11.068;2024-02-16T04:42:40;9.80;;;5.43;;
29916;SDS011;16786;49.466;11.068;2024-02-16T04:45:10;9.02;;;5.38;;
29916;SDS011;16786;49.466;11.068;2024-02-16T04:47:38;12.98;;;6.38;;
29916;SDS011;16786;49.466;11.068;2024-02-16T04:50:06;10.80;;;5.47;;
29916;SDS011;16786;49.466;11.068;2024-02-16T04:52:36;9.23;;;5.80;;
29916;SDS011;16786;49.466;11.068;2024-02-16T04:55:05;9.57;;;5.35;;
29916;SDS011;16786;49.466;11.068;2024-02-16T04:57:35;9.35;;;5.50;;
29916;SDS011;16786;49.466;11.068;2024-02-16T05:00:02;8.18;;;5.53;;
29916;SDS011;16786;49.466;11.068;2024-02-16T05:02:30;10.25;;;6.53;;
29916;SDS011;16786;49.466;11.068;2024-02-16T05:04:57;9.13;;;5.68;;
29916;SDS011;16786;49.466;11.068;2024-02-16T05:07:28;9.38;;;6.10;;
29916;SDS011;16786;49.466;11.068;2024-02-16T05:09:57;10.13;;;5.78;;
29916;SDS011;16786;49.466;11.068;2024-02-16T05:12:25;10.85;;;6.20;;
29916;SDS011;16786;49.466;11.068;2024-02-16T05:14:53;10.85;;;6.47;;
29916;SDS011;16786;49.466;11.068;2024-02-16T05:17:21;10.32;;;6.55;;
29916;SDS011;16786;49.466;11.068;2024-02-16T05:19:50;11.57;;;6.70;;
29916;SDS011;16786;49.466;11.068;2024-02-16T05:22:17;9.85;;;6.15;;
29916;SDS011;16786;49.466;11.068;2024-02-16T05:24:45;11.27;;;6.82;;
29916;SDS011;16786;49.466;11.068;2024-02-16T05:27:13;9.52;;;6.38;;
29916;SDS011;16786;49.466;11.068;2024-02-16T05:29:40;9.75;;;6.82;;
29916;SDS011;16786;49.466;11.068;2024-02-16T05:32:07;11.65;;;7.00;;
29916;SDS011;16786;49.466;11.068;2024-02-16T05:34:35;12.63;;;7.15;;
29916;SDS011;16786;49.466;11.068;2024-02-16T05:37:05;11.40;;;7.35;;
29916;SDS011;16786;49.466;11.068;2024-02-16T05:39:33;10.73;;;6.80;;
29916;SDS011;16786;49.466;11.068;2024-02-16T05:42:09;11.48;;;7.55;;
29916;SDS011;16786;49.466;11.068;2024-02-16T05:44:36;11.90;;;8.20;;
29916;SDS011;16786;49.466;11.068;2024-02-16T05:47:03;26.70;;;16.50;;
29916;SDS011;16786;49.466;11.068;2024-02-16T05:49:30;33.22;;;20.45;;
29916;SDS011;16786;49.466;11.068;2024-02-16T05:51:57;23.15;;;14.80;;
29916;SDS011;16786;49.466;11.068;2024-02-16T05:55:00;18.90;;;11.00;;
29916;SDS011;16786;49.466;11.068;2024-02-16T05:57:27;15.70;;;9.80;;
29916;SDS011;16786;49.466;11.068;2024-02-16T05:59:55;19.05;;;11.18;;
29916;SDS011;16786;49.466;11.068;2024-02-16T06:02:25;14.15;;;9.55;;
29916;SDS011;16786;49.466;11.068;2024-02-16T06:04:53;17.38;;;10.32;;
29916;SDS011;16786;49.466;11.068;2024-02-16T06:07:20;12.95;;;8.98;;
29916;SDS011;16786;49.466;11.068;2024-02-16T06:09:47;13.70;;;8.23;;
29916;SDS011;16786;49.466;11.068;2024-02-16T06:12:14;12.27;;;8.40;;
29916;SDS011;16786;49.466;11.068;2024-02-16T06:14:42;14.32;;;8.52;;
29916;SDS011;16786;49.466;11.068;2024-02-16T06:17:09;13.32;;;9.02;;
29916;SDS011;16786;49.466;11.068;2024-02-16T06:19:36;14.30;;;8.13;;
29916;SDS011;16786;49.466;11.068;2024-02-16T06:22:04;11.75;;;7.45;;
29916;SDS011;16786;49.466;11.068;2024-02-16T06:24:31;15.25;;;8.23;;
29916;SDS011;16786;49.466;11.068;2024-02-16T06:26:58;11.48;;;7.03;;
29916;SDS011;16786;49.466;11.068;2024-02-16T06:29:25;14.20;;;8.82;;
29916;SDS011;16786;49.466;11.068;2024-02-16T06:31:52;13.50;;;8.52;;
29916;SDS011;16786;49.466;11.068;2024-02-16T06:34:19;13.50;;;8.55;;
29916;SDS011;16786;49.466;11.068;2024-02-16T06:36:46;11.73;;;7.35;;
29916;SDS011;16786;49.466;11.068;2024-02-16T06:39:15;14.02;;;8.43;;
29916;SDS011;16786;49.466;11.068;2024-02-16T06:41:46;12.15;;;7.72;;
29916;SDS011;16786;49.466;11.068;2024-02-16T06:44:13;12.07;;;8.07;;
29916;SDS011;16786;49.466;11.068;2024-02-16T06:46:41;12.95;;;8.05;;
29916;SDS011;16786;49.466;11.068;2024-02-16T06:49:08;15.45;;;9.48;;
29916;SDS011;16786;49.466;11.068;2024-02-16T06:51:36;15.63;;;9.52;;
29916;SDS011;16786;49.466;11.068;2024-02-16T06:54:03;14.27;;;9.05;;
29916;SDS011;16786;49.466;11.068;2024-02-16T06:56:31;14.05;;;8.52;;
29916;SDS011;16786;49.466;11.068;2024-02-16T06:58:58;15.80;;;9.05;;
29916;SDS011;16786;49.466;11.068;2024-02-16T07:01:25;13.35;;;8.18;;
29916;SDS011;16786;49.466;11.068;2024-02-16T07:03:54;15.25;;;8.57;;
29916;SDS011;16786;49.466;11.068;2024-02-16T07:06:21;12.38;;;8.50;;
29916;SDS011;16786;49.466;11.068;2024-02-16T07:08:49;15.05;;;9.18;;
29916;SDS011;16786;49.466;11.068;2024-02-16T07:11:17;13.23;;;8.50;;
29916;SDS011;16786;49.466;11.068;2024-02-16T07:13:45;12.82;;;8.82;;
29916;SDS011;16786;49.466;11.068;2024-02-16T07:16:12;14.07;;;8.73;;
29916;SDS011;16786;49.466;11.068;2024-02-16T07:18:40;13.93;;;8.98;;
29916;SDS011;16786;49.466;11.068;2024-02-16T07:21:08;15.48;;;9.02;;
29916;SDS011;16786;49.466;11.068;2024-02-16T07:23:36;13.85;;;9.07;;
29916;SDS011;16786;49.466;11.068;2024-02-16T07:26:03;16.25;;;9.52;;
29916;SDS011;16786;49.466;11.068;2024-02-16T07:28:33;13.90;;;9.68;;
29916;SDS011;16786;49.466;11.068;2024-02-16T07:31:01;17.98;;;9.95;;
29916;SDS011;16786;49.466;11.068;2024-02-16T07:33:28;20.42;;;11.27;;
29916;SDS011;16786;49.466;11.068;2024-02-16T07:35:56;18.45;;;10.75;;
29916;SDS011;16786;49.466;11.068;2024-02-16T07:38:23;15.38;;;9.48;;
29916;SDS011;16786;49.466;11.068;2024-02-16T07:40:50;16.40;;;9.30;;
29916;SDS011;16786;49.466;11.068;2024-02-16T07:43:17;13.10;;;9.23;;
29916;SDS011;16786;49.466;11.068;2024-02-16T07:45:45;14.85;;;9.55;;
29916;SDS011;16786;49.466;11.068;2024-02-16T07:48:12;15.77;;;9.48;;
29916;SDS011;16786;49.466;11.068;2024-02-16T07:50:40;12.70;;;8.68;;
29916;SDS011;16786;49.466;11.068;2024-02-16T07:53:07;16.55;;;8.05;;
29916;SDS011;16786;49.466;11.068;2024-02-16T07:55:36;13.65;;;9.18;;
29916;SDS011;16786;49.466;11.068;2024-02-16T07:58:03;15.38;;;9.00;;
29916;SDS011;16786;49.466;11.068;2024-02-16T08:00:30;14.40;;;8.43;;
29916;SDS011;16786;49.466;11.068;2024-02-16T08:02:57;12.43;;;8.77;;
29916;SDS011;16786;49.466;11.068;2024-02-16T08:05:24;13.27;;;8.50;;
29916;SDS011;16786;49.466;11.068;2024-02-16T08:07:52;13.40;;;8.77;;
29916;SDS011;16786;49.466;11.068;2024-02-16T08:10:20;13.43;;;8.60;;
29916;SDS011;16786;49.466;11.068;2024-02-16T08:12:51;16.05;;;10.57;;
29916;SDS011;16786;49.466;11.068;2024-02-16T08:15:19;14.00;;;9.95;;
29916;SDS011;16786;49.466;11.068;2024-02-16T08:17:51;15.40;;;10.05;;
29916;SDS011;16786;49.466;11.068;2024-02-16T08:20:18;14.50;;;9.50;;
29916;SDS011;16786;49.466;11.068;2024-02-16T08:22:45;14.32;;;9.90;;
29916;SDS011;16786;49.466;11.068;2024-02-16T08:25:13;13.73;;;9.57;;
29916;SDS011;16786;49.466;11.068;2024-02-16T08:27:40;15.30;;;9.23;;
29916;SDS011;16786;49.466;11.068;2024-02-16T08:30:07;17.17;;;9.20;;
29916;SDS011;16786;49.466;11.068;2024-02-16T08:32:36;15.50;;;9.15;;
29916;SDS011;16786;49.466;11.068;2024-02-16T08:35:03;14.65;;;9.13;;
29916;SDS011;16786;49.466;11.068;2024-02-16T08:37:30;16.17;;;9.70;;
29916;SDS011;16786;49.466;11.068;2024-02-16T08:39:57;14.57;;;8.75;;
29916;SDS011;16786;49.466;11.068;2024-02-16T08:42:24;11.57;;;8.77;;
29916;SDS011;16786;49.466;11.068;2024-02-16T08:44:51;13.70;;;9.23;;
29916;SDS011;16786;49.466;11.068;2024-02-16T08:47:18;12.13;;;8.60;;
29916;SDS011;16786;49.466;11.068;2024-02-16T08:49:45;13.15;;;8.73;;
29916;SDS011;16786;49.466;11.068;2024-02-16T08:52:13;21.70;;;14.38;;
29916;SDS011;16786;49.466;11.068;2024-02-16T08:54:42;13.52;;;8.70;;
29916;SDS011;16786;49.466;11.068;2024-02-16T08:57:10;14.95;;;9.75;;
29916;SDS011;16786;49.466;11.068;2024-02-16T08:59:38;13.63;;;8.88;;
29916;SDS011;16786;49.466;11.068;2024-02-16T09:02:05;14.32;;;9.18;;
29916;SDS011;16786;49.466;11.068;2024-02-16T09:04:32;12.80;;;8.75;;
29916;SDS011;16786;49.466;11.068;2024-02-16T09:06:59;14.13;;;9.15;;
29916;SDS011;16786;49.466;11.068;2024-02-16T09:09:27;12.43;;;9.18;;
29916;SDS011;16786;49.466;11.068;2024-02-16T09:11:55;13.18;;;9.00;;
29916;SDS011;16786;49.466;11.068;2024-02-16T09:14:22;13.00;;;9.73;;
29916;SDS011;16786;49.466;11.068;2024-02-16T09:16:49;12.77;;;9.05;;
29916;SDS011;16786;49.466;11.068;2024-02-16T09:19:19;14.70;;;9.93;;
29916;SDS011;16786;49.466;11.068;2024-02-16T09:21:48;12.93;;;9.00;;
29916;SDS011;16786;49.466;11.068;2024-02-16T09:24:16;15.02;;;10.38;;
29916;SDS011;16786;49.466;11.068;2024-02-16T09:26:45;14.32;;;9.90;;
29916;SDS011;16786;49.466;11.068;2024-02-16T09:29:14;13.95;;;9.40;;
29916;SDS011;16786;49.466;11.068;2024-02-16T09:31:41;14.52;;;9.90;;
29916;SDS011;16786;49.466;11.068;2024-02-16T09:34:08;16.00;;;9.13;;
29916;SDS011;16786;49.466;11.068;2024-02-16T09:36:36;14.15;;;10.13;;
29916;SDS011;16786;49.466;11.068;2024-02-16T09:39:04;12.90;;;9.38;;
29916;SDS011;16786;49.466;11.068;2024-02-16T09:41:33;11.70;;;8.63;;
29916;SDS011;16786;49.466;11.068;2024-02-16T09:44:04;13.63;;;8.82;;
29916;SDS011;16786;49.466;11.068;2024-02-16T09:46:33;11.25;;;8.23;;
29916;SDS011;16786;49.466;11.068;2024-02-16T09:49:00;18.73;;;9.50;;
29916;SDS011;16786;49.466;11.068;2024-02-16T09:51:30;13.75;;;8.88;;
29916;SDS011;16786;49.466;11.068;2024-02-16T09:53:57;16.30;;;10.18;;
29916;SDS011;16786;49.466;11.068;2024-02-16T09:56:25;16.08;;;10.95;;
29916;SDS011;16786;49.466;11.068;2024-02-16T09:58:52;13.60;;;9.63;;
29916;SDS011;16786;49.466;11.068;2024-02-16T10:01:22;14.40;;;9.52;;
29916;SDS011;16786;49.466;11.068;2024-02-16T10:03:49;12.85;;;8.98;;
29916;SDS011;16786;49.466;11.068;2024-02-16T10:06:17;11.07;;;8.82;;
29916;SDS011;16786;49.466;11.068;2024-02-16T10:11:19;16.97;;;11.07;;
29916;SDS011;16786;49.466;11.068;2024-02-16T10:16:22;12.07;;;9.25;;
29916;SDS011;16786;49.466;11.068;2024-02-16T10:18:49;11.05;;;8.57;;
29916;SDS011;16786;49.466;11.068;2024-02-16T10:21:26;11.80;;;8.73;;
29916;SDS011;16786;49.466;11.068;2024-02-16T10:23:56;11.40;;;8.68;;
29916;SDS011;16786;49.466;11.068;2024-02-16T10:26:31;14.25;;;9.40;;
29916;SDS011;16786;49.466;11.068;2024-02-16T10:28:58;11.80;;;8.65;;
29916;SDS011;16786;49.466;11.068;2024-02-16T10:31:25;13.50;;;9.48;;
29916;SDS011;16786;49.466;11.068;2024-02-16T10:34:03;11.43;;;7.80;;
29916;SDS011;16786;49.466;11.068;2024-02-16T10:36:36;11.95;;;8.48;;
29916;SDS011;16786;49.466;11.068;2024-02-16T10:39:05;10.77;;;7.72;;
29916;SDS011;16786;49.466;11.068;2024-02-16T10:41:35;10.82;;;8.13;;
29916;SDS011;16786;49.466;11.068;2024-02-16T10:44:03;14.32;;;8.73;;
29916;SDS011;16786;49.466;11.068;2024-02-16T10:46:32;9.82;;;7.45;;
29916;SDS011;16786;49.466;11.068;2024-02-16T10:49:00;10.15;;;7.93;;
29916;SDS011;16786;49.466;11.068;2024-02-16T10:51:37;9.52;;;7.10;;
29916;SDS011;16786;49.466;11.068;2024-02-16T10:54:12;12.73;;;8.55;;
29916;SDS011;16786;49.466;11.068;2024-02-16T10:56:42;14.98;;;8.40;;
29916;SDS011;16786;49.466;11.068;2024-02-16T10:59:09;12.73;;;8.40;;
29916;SDS011;16786;49.466;11.068;2024-02-16T11:01:37;12.95;;;7.93;;
29916;SDS011;16786;49.466;11.068;2024-02-16T11:04:12;11.63;;;7.63;;
29916;SDS011;16786;49.466;11.068;2024-02-16T11:06:44;11.07;;;7.55;;
29916;SDS011;16786;49.466;11.068;2024-02-16T11:09:35;13.77;;;10.70;;
29916;SDS011;16786;49.466;11.068;2024-02-16T11:12:05;13.25;;;9.15;;
29916;SDS011;16786;49.466;11.068;2024-02-16T11:14:39;12.75;;;8.48;;
29916;SDS011;16786;49.466;11.068;2024-02-16T11:17:20;13.90;;;9.15;;
29916;SDS011;16786;49.466;11.068;2024-02-16T11:19:47;15.25;;;10.02;;
29916;SDS011;16786;49.466;11.068;2024-02-16T11:22:19;13.13;;;8.90;;
29916;SDS011;16786;49.466;11.068;2024-02-16T11:27:16;10.95;;;8.20;;
29916;SDS011;16786;49.466;11.068;2024-02-16T11:32:15;14.32;;;9.18;;
29916;SDS011;16786;49.466;11.068;2024-02-16T11:34:42;16.00;;;9.45;;
29916;SDS011;16786;49.466;11.068;2024-02-16T11:37:10;13.70;;;9.15;;
29916;SDS011;16786;49.466;11.068;2024-02-16T11:39:40;10.15;;;7.57;;
29916;SDS011;16786;49.466;11.068;2024-02-16T11:42:12;13.65;;;8.77;;
29916;SDS011;16786;49.466;11.068;2024-02-16T11:44:50;12.75;;;9.15;;
29916;SDS011;16786;49.466;11.068;2024-02-16T11:47:22;12.00;;;8.15;;
29916;SDS011;16786;49.466;11.068;2024-02-16T11:50:02;13.05;;;9.70;;
29916;SDS011;16786;49.466;11.068;2024-02-16T11:52:31;11.45;;;8.45;;
29916;SDS011;16786;49.466;11.068;2024-02-16T11:54:58;11.80;;;8.43;;
29916;SDS011;16786;49.466;11.068;2024-02-16T11:57:28;13.07;;;8.27;;
29916;SDS011;16786;49.466;11.068;2024-02-16T11:59:55;12.38;;;8.85;;
29916;SDS011;16786;49.466;11.068;2024-02-16T12:02:24;12.35;;;8.73;;
29916;SDS011;16786;49.466;11.068;2024-02-16T12:04:57;12.10;;;8.63;;
29916;SDS011;16786;49.466;11.068;2024-02-16T12:07:26;16.92;;;9.18;;
29916;SDS011;16786;49.466;11.068;2024-02-16T12:09:58;13.45;;;8.77;;
29916;SDS011;16786;49.466;11.068;2024-02-16T12:12:26;16.80;;;9.57;;
29916;SDS011;16786;49.466;11.068;2024-02-16T12:14:54;15.05;;;8.18;;
29916;SDS011;16786;49.466;11.068;2024-02-16T12:17:21;11.55;;;8.57;;
29916;SDS011;16786;49.466;11.068;2024-02-16T12:19:49;13.18;;;8.60;;
29916;SDS011;16786;49.466;11.068;2024-02-16T12:22:19;14.27;;;8.32;;
29916;SDS011;16786;49.466;11.068;2024-02-16T12:24:48;13.60;;;7.97;;
29916;SDS011;16786;49.466;11.068;2024-02-16T12:27:17;14.32;;;8.27;;
29916;SDS011;16786;49.466;11.068;2024-02-16T12:29:44;15.02;;;8.45;;
29916;SDS011;16786;49.466;11.068;2024-02-16T12:32:13;15.93;;;8.45;;
29916;SDS011;16786;49.466;11.068;2024-02-16T12:34:45;11.57;;;8.32;;
29916;SDS011;16786;49.466;11.068;2024-02-16T12:37:12;14.70;;;9.00;;
29916;SDS011;16786;49.466;11.068;2024-02-16T12:39:39;14.45;;;9.07;;
29916;SDS011;16786;49.466;11.068;2024-02-16T12:42:06;13.18;;;8.85;;
29916;SDS011;16786;49.466;11.068;2024-02-16T12:44:34;10.65;;;7.80;;
29916;SDS011;16786;49.466;11.068;2024-02-16T12:47:01;11.32;;;8.55;;
29916;SDS011;16786;49.466;11.068;2024-02-16T12:49:29;12.90;;;8.90;;
29916;SDS011;16786;49.466;11.068;2024-02-16T12:51:56;10.15;;;7.50;;
29916;SDS011;16786;49.466;11.068;2024-02-16T12:54:23;9.57;;;7.85;;
29916;SDS011;16786;49.466;11.068;2024-02-16T12:56:51;13.40;;;8.65;;
29916;SDS011;16786;49.466;11.068;2024-02-16T12:59:19;11.45;;;8.00;;
29916;SDS011;16786;49.466;11.068;2024-02-16T13:01:46;11.38;;;7.93;;
29916;SDS011;16786;49.466;11.068;2024-02-16T13:04:13;9.45;;;6.93;;
29916;SDS011;16786;49.466;11.068;2024-02-16T13:06:48;11.52;;;7.55;;
29916;SDS011;16786;49.466;11.068;2024-02-16T13:09:16;10.88;;;7.03;;
29916;SDS011;16786;49.466;11.068;2024-02-16T13:11:43;12.57;;;7.85;;
29916;SDS011;16786;49.466;11.068;2024-02-16T13:14:10;9.50;;;7.05;;
29916;SDS011;16786;49.466;11.068;2024-02-16T13:16:37;10.13;;;7.80;;
29916;SDS011;16786;49.466;11.068;2024-02-16T13:19:04;14.60;;;7.70;;
29916;SDS011;16786;49.466;11.068;2024-02-16T13:21:31;11.32;;;7.90;;
29916;SDS011;16786;49.466;11.068;2024-02-16T13:23:58;9.88;;;7.55;;
29916;SDS011;16786;49.466;11.068;2024-02-16T13:26:26;11.05;;;8.00;;
29916;SDS011;16786;49.466;11.068;2024-02-16T13:28:53;11.77;;;7.63;;
29916;SDS011;16786;49.466;11.068;2024-02-16T13:31:21;11.77;;;8.27;;
29916;SDS011;16786;49.466;11.068;2024-02-16T13:33:49;12.43;;;8.25;;
29916;SDS011;16786;49.466;11.068;2024-02-16T13:36:18;11.52;;;9.00;;
29916;SDS011;16786;49.466;11.068;2024-02-16T13:38:45;14.30;;;9.73;;
29916;SDS011;16786;49.466;11.068;2024-02-16T13:41:12;11.70;;;8.38;;
29916;SDS011;16786;49.466;11.068;2024-02-16T13:43:44;12.27;;;9.27;;
29916;SDS011;16786;49.466;11.068;2024-02-16T13:46:11;11.93;;;8.85;;
29916;SDS011;16786;49.466;11.068;2024-02-16T13:48:38;13.93;;;9.65;;
29916;SDS011;16786;49.466;11.068;2024-02-16T13:51:08;15.57;;;9.65;;
29916;SDS011;16786;49.466;11.068;2024-02-16T13:53:35;11.93;;;9.45;;
29916;SDS011;16786;49.466;11.068;2024-02-16T13:56:02;11.98;;;8.50;;
29916;SDS011;16786;49.466;11.068;2024-02-16T13:58:32;13.45;;;9.18;;
29916;SDS011;16786;49.466;11.068;2024-02-16T14:01:01;11.35;;;8.45;;
29916;SDS011;16786;49.466;11.068;2024-02-16T14:03:30;10.57;;;8.20;;
29916;SDS011;16786;49.466;11.068;2024-02-16T14:05:59;12.20;;;8.35;;
29916;SDS011;16786;49.466;11.068;2024-02-16T14:08:27;10.60;;;8.80;;
29916;SDS011;16786;49.466;11.068;2024-02-16T14:10:54;10.95;;;8.35;;
29916;SDS011;16786;49.466;11.068;2024-02-16T14:13:21;10.00;;;8.10;;
29916;SDS011;16786;49.466;11.068;2024-02-16T14:15:51;10.98;;;8.55;;
29916;SDS011;16786;49.466;11.068;2024-02-16T14:18:18;10.18;;;8.13;;
29916;SDS011;16786;49.466;11.068;2024-02-16T14:20:59;16.67;;;9.32;;
29916;SDS011;16786;49.466;11.068;2024-02-16T14:23:27;11.50;;;8.23;;
29916;SDS011;16786;49.466;11.068;2024-02-16T14:25:55;10.85;;;8.68;;
29916;SDS011;16786;49.466;11.068;2024-02-16T14:28:22;16.65;;;9.55;;
29916;SDS011;16786;49.466;11.068;2024-02-16T14:30:49;15.00;;;9.95;;
29916;SDS011;16786;49.466;11.068;2024-02-16T14:33:16;15.25;;;10.02;;
29916;SDS011;16786;49.466;11.068;2024-02-16T14:35:51;16.67;;;11.85;;
29916;SDS011;16786;49.466;11.068;2024-02-16T14:38:18;19.23;;;10.25;;
29916;SDS011;16786;49.466;11.068;2024-02-16T14:40:45;14.43;;;10.45;;
29916;SDS011;16786;49.466;11.068;2024-02-16T14:43:12;16.08;;;10.63;;